Portada
METAR-TAF:

METAR-TAF

Aeropuertos :

Curitiba, Paraná, Brasil

latitud: 25-26S, longitud: 049-16W, altitud: 924 m

Observación

El informe se hizo hace 44 minutos, a las 20:00 UTC
Viento 8 kt del norte
Temperatura 24°C
Humedad 44%
Presión 1019 hPa
Visibilidad 10 km o más
sin nubes por debajo de 1500 m y sin presencia de cumulonimbus.

METAR: SBBI 192000Z 01008KT CAVOK 24/11 Q1019

Hora: 17:44 (20:44 UTC)

Pronóstico

El informe se hizo hace 5 horas y 44 minutos, a las 15:00 UTC
Pronóstico válido del 19 a las 18 UTC al 20 a las 06 UTC
Viento 7 kt del norte-noroeste
Visibilidad 10 km o más
sin nubes por debajo de 1500 m y sin presencia de cumulonimbus.
Evolucionando progresivamente
del 20 a las 02 UTC al 20 a las 04 UTC
Viento 4 kt del norte-noroeste

TAF: SBBI 191500Z 1918/2006 33007KT CAVOK TX26/1918Z TN14/2005Z BECMG 2002/2004 34004KT RMK PDV

Observaciones y pronósticos meteorológicos de más de 4000 aeropuertos (mensajes METAR y TAF).

Los puntos amarillos y rojos representan las estaciones disponibles.

Ponga el ratón en el punto deseado para ver el nombre de la estación.

Haga clic para ver las observaciones y los pronósticos meteorológicos.

Para cambiar el mapa : haga clic en los botones verdes con una cruz de color negro para hacer un zoom, en el botón verde con un guión para alejar o en las flechas verdes para mapas adyacentes.


METAR-TAF: